createdAt,value
2023-08-29T00:01:44.824Z,96583.78
2023-08-29T00:04:12.370Z,96583.33
2023-08-29T00:06:39.590Z,96590.06
2023-08-29T00:09:07.338Z,96586.69
2023-08-29T00:11:35.214Z,96586.67
2023-08-29T00:14:02.424Z,96585.10
2023-08-29T00:16:29.583Z,96590.17
2023-08-29T00:18:56.742Z,96591.28
2023-08-29T00:21:23.972Z,96591.56
2023-08-29T00:23:50.974Z,96594.06
2023-08-29T00:26:18.138Z,96592.98
2023-08-29T00:28:45.538Z,96584.78
2023-08-29T00:31:12.701Z,96594.27
2023-08-29T00:33:40.032Z,96595.31
2023-08-29T00:36:07.168Z,96603.22
2023-08-29T00:38:36.520Z,96605.04
2023-08-29T00:41:04.496Z,96608.03
2023-08-29T00:43:31.976Z,96612.00
2023-08-29T00:46:01.201Z,96608.87
2023-08-29T00:48:28.436Z,96602.17
2023-08-29T00:50:55.641Z,96608.30
2023-08-29T00:53:24.238Z,96610.26
2023-08-29T00:55:52.093Z,96593.70
2023-08-29T00:58:19.904Z,96592.92
2023-08-29T01:00:47.261Z,96590.60
2023-08-29T01:03:14.669Z,96589.05
2023-08-29T01:05:41.915Z,96591.11
2023-08-29T01:08:09.262Z,96598.84
2023-08-29T01:11:04.680Z,96605.03
2023-08-29T01:13:44.771Z,96598.97
2023-08-29T01:16:13.790Z,96603.55
2023-08-29T01:18:41.609Z,96603.95
2023-08-29T01:21:18.650Z,96603.44
2023-08-29T01:23:49.474Z,96602.06
2023-08-29T01:26:17.403Z,96592.58
2023-08-29T01:28:46.688Z,96594.13
2023-08-29T01:31:14.588Z,96597.31
2023-08-29T01:33:42.350Z,96600.85
2023-08-29T01:36:09.681Z,96592.58
2023-08-29T01:38:36.886Z,96599.64
2023-08-29T01:41:04.260Z,96595.88
2023-08-29T01:43:31.529Z,96596.05
2023-08-29T01:45:58.674Z,96597.05
2023-08-29T01:48:26.341Z,96596.88
2023-08-29T01:50:53.937Z,96596.95
2023-08-29T01:53:21.046Z,96595.46
2023-08-29T01:55:48.954Z,96591.99
2023-08-29T01:58:16.824Z,96606.98
2023-08-29T02:00:44.890Z,96602.14
2023-08-29T02:03:12.274Z,96595.08
2023-08-29T02:05:41.489Z,96598.06
2023-08-29T02:08:08.950Z,96585.72
2023-08-29T02:10:36.514Z,96586.52
2023-08-29T02:13:03.891Z,96589.11
2023-08-29T02:15:31.119Z,96583.59
2023-08-29T02:17:59.296Z,96587.73
2023-08-29T02:20:26.573Z,96580.84
2023-08-29T02:22:54.040Z,96580.84
2023-08-29T02:25:21.233Z,96582.39
2023-08-29T02:27:48.440Z,96588.13
2023-08-29T02:30:16.298Z,96582.39
2023-08-29T02:32:43.649Z,96578.25
2023-08-29T02:35:11.895Z,96577.70
2023-08-29T02:37:39.052Z,96570.21
2023-08-29T02:40:09.080Z,96574.55
2023-08-29T02:42:37.189Z,96578.86
2023-08-29T02:45:04.957Z,96580.23
2023-08-29T02:47:32.062Z,96577.30
2023-08-29T02:49:59.294Z,96577.73
2023-08-29T02:52:26.449Z,96575.81
2023-08-29T02:54:53.938Z,96576.66
2023-08-29T02:57:21.556Z,96570.59
2023-08-29T02:59:48.728Z,96576.77
2023-08-29T03:02:15.908Z,96576.05
2023-08-29T03:04:43.107Z,96572.01
2023-08-29T03:07:10.404Z,96572.23
2023-08-29T03:09:37.417Z,96572.67
2023-08-29T03:12:05.928Z,96577.03
2023-08-29T03:14:33.049Z,96576.66
2023-08-29T03:17:00.207Z,96583.20
2023-08-29T03:19:27.747Z,96580.50
2023-08-29T03:21:54.991Z,96583.48
2023-08-29T03:24:22.293Z,96578.84
2023-08-29T03:26:49.573Z,96576.91
2023-08-29T03:29:17.115Z,96579.13
2023-08-29T03:31:45.236Z,96579.78
2023-08-29T03:34:12.809Z,96575.95
2023-08-29T03:36:39.966Z,96584.44
2023-08-29T03:39:07.060Z,96577.27
2023-08-29T03:41:34.833Z,96580.67
2023-08-29T03:44:02.134Z,96586.05
2023-08-29T03:46:30.336Z,96586.52
2023-08-29T03:48:58.147Z,96583.04
2023-08-29T03:51:25.321Z,96584.54
2023-08-29T03:53:53.393Z,96582.44
2023-08-29T03:56:20.591Z,96573.24
2023-08-29T03:58:49.672Z,96572.52
2023-08-29T04:01:20.271Z,96576.12
2023-08-29T04:03:49.609Z,96578.66
2023-08-29T04:06:21.804Z,96579.52
2023-08-29T04:08:48.841Z,96573.03
2023-08-29T04:11:16.167Z,96570.53
2023-08-29T04:13:43.766Z,96568.77
2023-08-29T04:16:11.015Z,96575.09
2023-08-29T04:18:38.697Z,96571.04
2023-08-29T04:21:06.156Z,96570.23
2023-08-29T04:23:33.279Z,96571.69
2023-08-29T04:26:01.577Z,96573.50
2023-08-29T04:28:28.942Z,96565.28
2023-08-29T04:30:56.338Z,96570.78
2023-08-29T04:33:25.605Z,96571.98
2023-08-29T04:35:53.224Z,96569.05
2023-08-29T04:38:20.422Z,96568.88
2023-08-29T04:40:47.714Z,96563.56
2023-08-29T04:43:14.704Z,96562.36
2023-08-29T04:45:43.982Z,96559.98
2023-08-29T04:48:11.499Z,96566.22
2023-08-29T04:50:40.220Z,96561.08
2023-08-29T04:53:07.402Z,96564.56
2023-08-29T04:55:34.558Z,96559.61
2023-08-29T04:58:01.856Z,96566.20
2023-08-29T05:00:29.634Z,96569.11
2023-08-29T05:02:57.218Z,96561.38
2023-08-29T05:05:24.707Z,96560.69
2023-08-29T05:07:51.877Z,96561.79
2023-08-29T05:10:20.949Z,96555.98
2023-08-29T05:12:48.227Z,96556.66
2023-08-29T05:15:17.098Z,96558.54
2023-08-29T05:17:46.264Z,96557.27
2023-08-29T05:20:13.657Z,96559.10
2023-08-29T05:22:41.135Z,96560.38
2023-08-29T05:25:10.847Z,96552.95
2023-08-29T05:27:38.081Z,96551.89
2023-08-29T05:30:07.086Z,96549.97
2023-08-29T05:32:34.568Z,96544.14
2023-08-29T05:35:01.865Z,96546.94
2023-08-29T05:37:29.069Z,96544.23
2023-08-29T05:39:56.424Z,96542.73
2023-08-29T05:42:23.646Z,96550.30
2023-08-29T05:44:50.884Z,96545.44
2023-08-29T05:47:18.336Z,96547.03
2023-08-29T05:49:45.411Z,96541.55
2023-08-29T05:52:12.543Z,96544.67
2023-08-29T05:54:40.000Z,96537.81
2023-08-29T05:57:07.491Z,96530.94
2023-08-29T05:59:34.886Z,96538.23
2023-08-29T06:02:03.719Z,96536.88
2023-08-29T06:04:31.182Z,96535.10
2023-08-29T06:06:58.194Z,96531.75
2023-08-29T06:09:25.375Z,96528.42
2023-08-29T06:11:52.656Z,96525.23
2023-08-29T06:14:19.801Z,96526.78
2023-08-29T06:16:47.070Z,96528.16
2023-08-29T06:19:14.245Z,96521.78
2023-08-29T06:21:41.496Z,96523.68
2023-08-29T06:24:08.949Z,96521.10
2023-08-29T06:26:37.918Z,96521.25
2023-08-29T06:29:05.058Z,96522.53
2023-08-29T06:31:32.496Z,96521.81
2023-08-29T06:34:00.378Z,96521.09
2023-08-29T06:36:28.133Z,96528.05
2023-08-29T06:38:55.281Z,96533.03
2023-08-29T06:41:22.719Z,96531.42
2023-08-29T06:43:49.916Z,96525.65
2023-08-29T06:46:17.104Z,96520.63
2023-08-29T06:48:44.461Z,96514.53
2023-08-29T06:51:12.945Z,96513.41
2023-08-29T06:53:40.303Z,96511.90
2023-08-29T06:56:07.591Z,96511.76
2023-08-29T06:58:35.042Z,96504.49
2023-08-29T07:01:02.372Z,96503.31
2023-08-29T07:03:29.810Z,96503.14
2023-08-29T07:05:56.940Z,96497.91
2023-08-29T07:08:24.257Z,96496.47
2023-08-29T07:10:51.335Z,96492.43
2023-08-29T07:13:18.547Z,96485.13
2023-08-29T07:15:45.688Z,96484.45
2023-08-29T07:18:13.788Z,96493.82
2023-08-29T07:20:41.126Z,96494.63
2023-08-29T07:23:08.255Z,96492.20
2023-08-29T07:25:39.790Z,96487.01
2023-08-29T07:28:11.010Z,96483.00
2023-08-29T07:30:47.213Z,96484.84
2023-08-29T07:33:15.317Z,96490.10
2023-08-29T07:35:43.392Z,96485.89
2023-08-29T07:38:10.935Z,96488.77
2023-08-29T07:40:38.386Z,96490.08
2023-08-29T07:43:08.188Z,96490.60
2023-08-29T07:45:35.514Z,96497.91
2023-08-29T07:48:03.430Z,96488.21
2023-08-29T07:50:30.677Z,96492.42
2023-08-29T07:52:58.185Z,96486.67
2023-08-29T07:55:25.670Z,96489.34
2023-08-29T07:57:52.858Z,96489.02
2023-08-29T08:00:20.279Z,96487.14
2023-08-29T08:02:47.523Z,96484.38
2023-08-29T08:05:16.070Z,96491.06
2023-08-29T08:07:45.776Z,96493.05
2023-08-29T08:10:14.735Z,96485.91
2023-08-29T08:12:42.001Z,96487.64
2023-08-29T08:15:10.142Z,96490.88
2023-08-29T08:17:37.888Z,96473.05
2023-08-29T08:20:08.311Z,96479.01
2023-08-29T08:22:36.708Z,96476.84
2023-08-29T08:25:04.828Z,96473.89
2023-08-29T08:27:32.063Z,96472.92
2023-08-29T08:30:00.362Z,96472.72
2023-08-29T08:32:27.892Z,96463.89
2023-08-29T08:34:56.268Z,96472.13
2023-08-29T08:37:23.527Z,96470.30
2023-08-29T08:39:50.797Z,96472.33
2023-08-29T08:42:19.462Z,96470.63
2023-08-29T08:44:46.903Z,96464.97
2023-08-29T08:47:14.232Z,96468.73
2023-08-29T08:49:41.645Z,96463.59
2023-08-29T08:52:11.648Z,96455.50
2023-08-29T08:54:39.653Z,96453.64
2023-08-29T08:57:07.256Z,96455.75
2023-08-29T08:59:34.921Z,96457.14
2023-08-29T09:02:01.971Z,96448.61
2023-08-29T09:04:29.269Z,96446.41
2023-08-29T09:06:56.532Z,96442.69
2023-08-29T09:09:23.927Z,96438.16
2023-08-29T09:11:52.932Z,96437.65
2023-08-29T09:14:20.978Z,96431.69
2023-08-29T09:16:53.581Z,96428.91
2023-08-29T09:19:23.058Z,96427.81
2023-08-29T09:21:51.143Z,96428.98
2023-08-29T09:24:35.899Z,96430.67
2023-08-29T09:27:08.672Z,96430.47
2023-08-29T09:29:35.974Z,96417.86
2023-08-29T09:32:15.928Z,96419.03
2023-08-29T09:34:42.987Z,96419.16
2023-08-29T09:37:12.837Z,96411.14
2023-08-29T09:39:39.952Z,96417.41
2023-08-29T09:42:10.476Z,96424.11
2023-08-29T09:44:39.269Z,96426.05
2023-08-29T09:47:07.390Z,96423.17
2023-08-29T09:49:49.264Z,96428.16
2023-08-29T09:52:17.577Z,96430.08
2023-08-29T09:54:52.265Z,96426.03
2023-08-29T09:57:23.760Z,96413.92
2023-08-29T09:59:52.477Z,96419.12
2023-08-29T10:02:21.299Z,96418.63
2023-08-29T10:04:58.290Z,96417.22
2023-08-29T10:07:27.639Z,96417.52
2023-08-29T10:09:55.962Z,96418.81
2023-08-29T10:12:23.481Z,96411.02
2023-08-29T10:14:50.754Z,96425.07
2023-08-29T10:17:31.117Z,96412.81
2023-08-29T10:19:47.573Z,96417.92
2023-08-29T10:22:14.887Z,96409.13
2023-08-29T10:24:44.279Z,96418.95
2023-08-29T10:27:11.460Z,96413.56
2023-08-29T10:29:38.716Z,96423.03
2023-08-29T10:32:06.353Z,96413.32
2023-08-29T10:34:33.657Z,96417.39
2023-08-29T10:37:00.689Z,96417.69
2023-08-29T10:39:28.332Z,96408.34
2023-08-29T10:41:56.853Z,96415.09
2023-08-29T10:44:45.130Z,96421.34
2023-08-29T10:47:23.596Z,96417.23
2023-08-29T10:49:59.380Z,96414.58
2023-08-29T10:52:40.871Z,96417.23
2023-08-29T10:55:20.679Z,96417.13
2023-08-29T10:57:48.707Z,96415.43
2023-08-29T11:00:20.892Z,96420.16
2023-08-29T11:02:48.859Z,96411.36
2023-08-29T11:05:16.952Z,96398.92
2023-08-29T11:07:44.222Z,96402.50
2023-08-29T11:10:18.539Z,96405.55
2023-08-29T11:13:06.818Z,96403.77
2023-08-29T11:15:55.951Z,96409.24
2023-08-29T11:18:30.152Z,96393.34
2023-08-29T11:20:57.492Z,96391.84
2023-08-29T11:23:24.452Z,96386.17
2023-08-29T11:25:53.079Z,96382.31
2023-08-29T11:28:20.210Z,96380.66
2023-08-29T11:30:47.679Z,96385.94
2023-08-29T11:33:16.051Z,96381.34
2023-08-29T11:35:43.260Z,96377.12
2023-08-29T11:38:10.678Z,96381.08
2023-08-29T11:40:49.116Z,96370.95
2023-08-29T11:43:19.086Z,96379.50
2023-08-29T11:45:45.619Z,96375.16
2023-08-29T11:48:10.790Z,96379.50
2023-08-29T11:50:41.472Z,96376.31
2023-08-29T11:53:08.643Z,96362.00
2023-08-29T11:55:36.334Z,96365.84
2023-08-29T11:58:05.290Z,96363.27
2023-08-29T12:00:32.815Z,96362.83
2023-08-29T12:03:00.002Z,96357.45
2023-08-29T12:05:27.490Z,96354.87
2023-08-29T12:07:54.665Z,96346.70
2023-08-29T12:10:22.015Z,96352.34
2023-08-29T12:12:49.301Z,96343.88
2023-08-29T12:15:24.313Z,96324.92
2023-08-29T12:17:49.317Z,96334.39
2023-08-29T12:20:20.478Z,96320.72
2023-08-29T12:22:50.076Z,96321.88
2023-08-29T12:25:19.494Z,96316.49
2023-08-29T12:27:47.253Z,96317.16
2023-08-29T12:30:15.112Z,96324.84
2023-08-29T12:32:43.719Z,96321.33
2023-08-29T12:35:12.110Z,96312.41
2023-08-29T12:37:39.519Z,96310.61
2023-08-29T12:40:09.465Z,96305.99
2023-08-29T12:42:37.432Z,96300.70
2023-08-29T12:45:06.672Z,96291.48
2023-08-29T12:47:34.767Z,96277.75
2023-08-29T12:50:02.137Z,96269.67
2023-08-29T12:52:29.256Z,96263.00
2023-08-29T12:54:56.339Z,96264.14
2023-08-29T12:57:23.347Z,96268.08
2023-08-29T12:59:50.738Z,96255.89
2023-08-29T13:02:17.919Z,96250.59
2023-08-29T13:04:46.447Z,96245.92
2023-08-29T13:07:13.734Z,96250.52
2023-08-29T13:09:42.198Z,96250.69
2023-08-29T13:12:09.270Z,96236.97
2023-08-29T13:14:40.044Z,96243.08
2023-08-29T13:17:07.379Z,96232.53
2023-08-29T13:19:34.714Z,96228.23
2023-08-29T13:22:02.923Z,96233.58
2023-08-29T13:24:30.130Z,96227.47
2023-08-29T13:26:57.436Z,96232.99
2023-08-29T13:29:24.865Z,96235.03
2023-08-29T13:31:52.798Z,96227.95
2023-08-29T13:34:20.084Z,96220.06
2023-08-29T13:36:47.437Z,96219.47
2023-08-29T13:39:14.703Z,96224.51
2023-08-29T13:41:43.112Z,96220.17
2023-08-29T13:44:11.174Z,96223.09
2023-08-29T13:46:40.241Z,96230.36
2023-08-29T13:49:07.602Z,96221.69
2023-08-29T13:51:34.969Z,96218.28
2023-08-29T13:54:02.330Z,96218.07
2023-08-29T13:56:29.570Z,96212.72
2023-08-29T13:58:58.412Z,96207.22
2023-08-29T14:01:25.686Z,96207.73
2023-08-29T14:03:53.228Z,96215.94
2023-08-29T14:06:20.762Z,96204.20
2023-08-29T14:08:48.953Z,96204.20
2023-08-29T14:11:16.288Z,96201.66
2023-08-29T14:13:43.643Z,96210.86
2023-08-29T14:16:11.058Z,96213.45
2023-08-29T14:18:40.626Z,96212.33
2023-08-29T14:21:09.007Z,96210.20
2023-08-29T14:23:36.251Z,96208.53
2023-08-29T14:26:03.828Z,96214.31
2023-08-29T14:28:31.025Z,96218.20
2023-08-29T14:30:58.697Z,96216.27
2023-08-29T14:33:25.936Z,96221.78
2023-08-29T14:35:56.288Z,96217.18
2023-08-29T14:38:23.585Z,96213.87
2023-08-29T14:40:50.683Z,96213.38
2023-08-29T14:43:18.383Z,96215.70
2023-08-29T14:45:45.634Z,96222.12
2023-08-29T14:48:12.740Z,96224.17
2023-08-29T14:50:45.205Z,96221.00
2023-08-29T14:53:12.345Z,96219.88
2023-08-29T14:55:39.759Z,96215.69
2023-08-29T14:58:07.391Z,96216.97
2023-08-29T15:00:35.333Z,96224.23
2023-08-29T15:03:06.069Z,96211.33
2023-08-29T15:05:33.773Z,96206.35
2023-08-29T15:08:00.891Z,96199.06
2023-08-29T15:10:28.068Z,96197.54
2023-08-29T15:12:55.164Z,96202.05
2023-08-29T15:15:22.387Z,96199.13
2023-08-29T15:17:49.675Z,96201.53
2023-08-29T15:20:17.863Z,96204.09
2023-08-29T15:22:45.347Z,96197.44
2023-08-29T15:25:12.315Z,96200.95
2023-08-29T15:27:39.411Z,96200.80
2023-08-29T15:30:08.665Z,96202.44
2023-08-29T15:32:35.939Z,96199.31
2023-08-29T15:35:05.786Z,96200.51
2023-08-29T15:37:33.386Z,96201.73
2023-08-29T15:40:00.798Z,96200.66
2023-08-29T15:42:28.137Z,96201.23
2023-08-29T15:44:55.282Z,96208.30
2023-08-29T15:47:22.333Z,96205.55
2023-08-29T15:49:49.611Z,96204.22
2023-08-29T15:52:16.715Z,96201.88
2023-08-29T15:54:43.951Z,96210.47
2023-08-29T15:57:11.192Z,96210.91
2023-08-29T15:59:38.404Z,96215.08
2023-08-29T16:02:06.032Z,96224.78
2023-08-29T16:04:33.329Z,96235.66
2023-08-29T16:07:00.385Z,96241.21
2023-08-29T16:09:29.668Z,96246.77
2023-08-29T16:11:57.077Z,96253.81
2023-08-29T16:14:28.542Z,96257.33
2023-08-29T16:16:57.275Z,96257.77
2023-08-29T16:19:24.493Z,96265.34
2023-08-29T16:21:51.665Z,96265.00
2023-08-29T16:24:18.677Z,96273.31
2023-08-29T16:26:45.833Z,96273.09
2023-08-29T16:29:13.046Z,96280.16
2023-08-29T16:31:41.349Z,96279.18
2023-08-29T16:34:08.504Z,96282.55
2023-08-29T16:36:35.588Z,96293.17
2023-08-29T16:39:03.162Z,96299.03
2023-08-29T16:41:30.372Z,96305.30
2023-08-29T16:43:57.412Z,96304.17
2023-08-29T16:46:26.227Z,96302.81
2023-08-29T16:48:53.410Z,96314.98
2023-08-29T16:51:20.638Z,96315.45
2023-08-29T16:53:47.769Z,96315.02
2023-08-29T16:56:14.964Z,96321.93
2023-08-29T16:58:42.196Z,96316.27
2023-08-29T17:01:09.574Z,96308.28
2023-08-29T17:03:37.755Z,96307.14
2023-08-29T17:06:05.132Z,96301.67
2023-08-29T17:08:32.199Z,96304.72
2023-08-29T17:10:59.360Z,96301.98
2023-08-29T17:13:26.529Z,96310.28
2023-08-29T17:15:53.726Z,96307.54
2023-08-29T17:18:20.855Z,96305.43
2023-08-29T17:20:48.018Z,96304.84
2023-08-29T17:23:15.161Z,96298.39
2023-08-29T17:25:42.447Z,96296.86
2023-08-29T17:28:11.612Z,96297.81
2023-08-29T17:30:38.689Z,96308.53
2023-08-29T17:33:06.036Z,96308.86
2023-08-29T17:35:33.465Z,96318.63
2023-08-29T17:38:00.740Z,96317.85
2023-08-29T17:40:27.947Z,96323.50
2023-08-29T17:42:55.067Z,96327.72
2023-08-29T17:45:22.244Z,96329.59
2023-08-29T17:47:49.510Z,96338.36
2023-08-29T17:50:16.821Z,96393.38
2023-08-29T17:52:45.293Z,96481.27
2023-08-29T17:55:12.484Z,96495.47
2023-08-29T17:57:39.691Z,96501.77
2023-08-29T18:00:07.977Z,96493.77
2023-08-29T18:02:36.932Z,96534.53
2023-08-29T18:05:05.125Z,96580.16
2023-08-29T18:07:32.465Z,96581.94
2023-08-29T18:10:08.172Z,96551.91
2023-08-29T18:12:37.420Z,96534.62
2023-08-29T18:15:06.174Z,96527.72
2023-08-29T18:17:33.593Z,96507.16
2023-08-29T18:20:01.013Z,96511.05
2023-08-29T18:22:29.751Z,96505.15
2023-08-29T18:24:57.116Z,96492.52
2023-08-29T18:27:26.349Z,96480.47
2023-08-29T18:29:53.665Z,96489.38
2023-08-29T18:32:20.807Z,96503.53
2023-08-29T18:34:49.794Z,96507.36
2023-08-29T18:37:16.987Z,96497.38
2023-08-29T18:39:44.481Z,96482.68
2023-08-29T18:42:11.747Z,96488.91
2023-08-29T18:44:39.122Z,96478.41
2023-08-29T18:47:06.305Z,96479.27
2023-08-29T18:49:35.479Z,96461.86
2023-08-29T18:52:03.782Z,96470.52
2023-08-29T18:54:34.625Z,96478.27
2023-08-29T18:57:02.086Z,96469.13
2023-08-29T18:59:29.511Z,96469.99
2023-08-29T19:01:59.144Z,96464.38
2023-08-29T19:04:26.341Z,96478.80
2023-08-29T19:06:53.544Z,96472.74
2023-08-29T19:09:20.819Z,96484.33
2023-08-29T19:11:47.837Z,96491.03
2023-08-29T19:14:14.914Z,96485.34
2023-08-29T19:16:41.972Z,96507.97
2023-08-29T19:19:10.977Z,96537.66
2023-08-29T19:21:40.143Z,96551.98
2023-08-29T19:24:08.385Z,96545.93
2023-08-29T19:26:36.602Z,96525.73
2023-08-29T19:29:03.963Z,96571.78
2023-08-29T19:31:31.215Z,96584.55
2023-08-29T19:33:58.504Z,96580.41
2023-08-29T19:36:26.397Z,96583.51
2023-08-29T19:38:59.116Z,96594.91
2023-08-29T19:41:22.844Z,96604.75
2023-08-29T19:43:49.920Z,96664.64
2023-08-29T19:46:17.124Z,96683.70
2023-08-29T19:48:44.203Z,96704.37
2023-08-29T19:51:11.695Z,96706.86
2023-08-29T19:53:38.985Z,96717.25
2023-08-29T19:56:06.457Z,96738.77
2023-08-29T19:58:35.469Z,96739.16
2023-08-29T20:01:07.179Z,96760.54
2023-08-29T20:03:35.156Z,96794.69
2023-08-29T20:06:02.742Z,96808.30
2023-08-29T20:08:30.009Z,96790.43
2023-08-29T20:10:57.251Z,96778.38
2023-08-29T20:13:24.372Z,96774.31
2023-08-29T20:15:51.633Z,96764.53
2023-08-29T20:18:18.982Z,96750.59
2023-08-29T20:20:46.360Z,96757.23
2023-08-29T20:23:13.540Z,96755.13
2023-08-29T20:25:40.560Z,96769.43
2023-08-29T20:28:08.109Z,96781.61
2023-08-29T20:30:36.221Z,96793.19
2023-08-29T20:33:04.328Z,96792.80
2023-08-29T20:35:33.221Z,96792.63
2023-08-29T20:38:00.797Z,96781.73
2023-08-29T20:40:27.945Z,96783.42
2023-08-29T20:42:55.317Z,96774.88
2023-08-29T20:45:24.321Z,96774.41
2023-08-29T20:47:51.638Z,96782.28
2023-08-29T20:50:21.144Z,96764.11
2023-08-29T20:52:48.343Z,96745.14
2023-08-29T20:55:15.579Z,96724.98
2023-08-29T20:57:43.707Z,96704.11
2023-08-29T21:00:13.187Z,96700.14
2023-08-29T21:02:40.887Z,96727.72
2023-08-29T21:05:08.773Z,96737.63
2023-08-29T21:07:36.011Z,96729.89
2023-08-29T21:10:03.913Z,96708.87
2023-08-29T21:12:32.135Z,96719.17
2023-08-29T21:14:59.133Z,96725.29
2023-08-29T21:17:26.870Z,96746.56
2023-08-29T21:19:54.449Z,96736.72
2023-08-29T21:22:21.534Z,96718.45
2023-08-29T21:24:48.820Z,96743.86
2023-08-29T21:27:16.032Z,96763.48
2023-08-29T21:29:44.078Z,96709.73
2023-08-29T21:32:11.503Z,96651.39
2023-08-29T21:34:38.525Z,96661.11
2023-08-29T21:37:06.332Z,96679.92
2023-08-29T21:39:33.632Z,96717.48
2023-08-29T21:42:00.997Z,96759.45
2023-08-29T21:44:28.134Z,96777.80
2023-08-29T21:46:55.296Z,96762.73
2023-08-29T21:49:22.301Z,96753.75
2023-08-29T21:51:49.420Z,96768.01
2023-08-29T21:54:16.616Z,96802.25
2023-08-29T21:56:44.372Z,96830.90
2023-08-29T21:59:11.661Z,96841.91
2023-08-29T22:01:38.904Z,96824.75
2023-08-29T22:04:06.384Z,96803.73
2023-08-29T22:06:33.555Z,96790.15
2023-08-29T22:09:00.700Z,96771.95
2023-08-29T22:11:27.680Z,96743.94
2023-08-29T22:13:54.786Z,96742.69
2023-08-29T22:16:21.923Z,96745.97
2023-08-29T22:18:49.241Z,96718.63
2023-08-29T22:21:16.634Z,96705.45
2023-08-29T22:23:44.108Z,96720.17
2023-08-29T22:26:12.742Z,96728.06
2023-08-29T22:28:39.802Z,96695.25
2023-08-29T22:31:06.932Z,96665.92
2023-08-29T22:33:34.211Z,96679.70
2023-08-29T22:36:01.450Z,96715.36
2023-08-29T22:38:29.118Z,96751.93
2023-08-29T22:41:21.240Z,96720.61
2023-08-29T22:43:40.216Z,96705.59
2023-08-29T22:46:08.985Z,96698.44
2023-08-29T22:48:36.208Z,96672.53
2023-08-29T22:51:04.818Z,96700.59
2023-08-29T22:53:31.986Z,96691.90
2023-08-29T22:56:03.359Z,96670.94
2023-08-29T22:58:30.500Z,96667.30
2023-08-29T23:00:59.667Z,96662.29
2023-08-29T23:03:26.973Z,96671.08
2023-08-29T23:05:54.458Z,96684.86
2023-08-29T23:08:21.874Z,96707.93
2023-08-29T23:10:49.312Z,96724.30
2023-08-29T23:13:18.341Z,96682.84
2023-08-29T23:15:47.482Z,96650.16
2023-08-29T23:18:14.801Z,96646.86
2023-08-29T23:20:41.907Z,96673.69
2023-08-29T23:23:09.370Z,96676.92
2023-08-29T23:25:37.437Z,96649.20
2023-08-29T23:28:04.735Z,96634.05
2023-08-29T23:30:35.502Z,96656.86
2023-08-29T23:33:03.654Z,96669.13
2023-08-29T23:35:30.993Z,96656.83
2023-08-29T23:37:58.255Z,96630.49
2023-08-29T23:40:26.856Z,96625.16
2023-08-29T23:42:54.228Z,96632.04
2023-08-29T23:45:21.484Z,96630.31
2023-08-29T23:47:48.605Z,96629.34
2023-08-29T23:50:16.036Z,96596.89
2023-08-29T23:52:43.328Z,96588.45
2023-08-29T23:55:10.497Z,96610.31
2023-08-29T23:57:37.562Z,96619.57
